Time;durP1;ratioP1;P1;durP2;ratioP2;P2;SDS_P1;SDS_P2;PMS_P1;PMS_P2;Temp;Humidity;BMP_temperature;BMP_pressure;BME280_temperature;BME280_humidity;BME280_pressure;Samples;Min_cycle;Max_cycle;Signal;HPM_P1;HPM_P2
2022/09/13 00:01:07;;;;;;;21.30;10.40;;;;;;;8.79;74.98;98709.67;88262;1274;22648;-73
2022/09/13 00:03:13;;;;;;;12.90;10.50;;;;;;;8.78;75.06;98710.79;88191;1276;23115;-74
2022/09/13 00:05:15;;;;;;;20.00;11.60;;;;;;;8.76;74.83;98708.95;88206;1277;24217;-74
2022/09/13 00:07:16;;;;;;;17.10;11.30;;;;;;;8.74;74.84;98708.64;88290;1276;26763;-73
2022/09/13 00:09:18;;;;;;;22.40;12.20;;;;;;;8.75;75.03;98707.58;88429;1274;22713;-73
2022/09/13 00:11:23;;;;;;;14.30;11.30;;;;;;;8.75;74.91;98703.89;88237;1276;22569;-75
2022/09/13 00:13:26;;;;;;;21.50;12.30;;;;;;;8.75;75.20;98704.73;88233;1276;23034;-74
2022/09/13 00:15:28;;;;;;;20.90;11.40;;;;;;;8.77;75.51;98706.09;88262;1276;25375;-74
2022/09/13 00:17:30;;;;;;;26.30;11.50;;;;;;;8.76;75.24;98702.60;88644;1273;22623;-73
2022/09/13 00:19:33;;;;;;;21.40;11.80;;;;;;;8.75;75.17;98699.36;88264;1277;22754;-74
2022/09/13 00:21:34;;;;;;;20.10;11.00;;;;;;;8.75;75.05;98700.20;88202;1276;24259;-72
2022/09/13 00:23:37;;;;;;;15.80;11.70;;;;;;;8.75;75.06;98698.48;88319;1275;25421;-73
2022/09/13 00:25:39;;;;;;;21.10;12.80;;;;;;;8.74;75.52;98698.52;88401;1274;22569;-74
2022/09/13 00:27:43;;;;;;;25.40;14.40;;;;;;;8.75;75.40;98699.50;88264;1276;22584;-75
2022/09/13 00:29:45;;;;;;;22.60;13.60;;;;;;;8.77;75.30;98696.61;88219;1275;22656;-74
2022/09/13 00:31:47;;;;;;;19.70;13.30;;;;;;;8.78;75.59;98694.67;88301;1274;25523;-73
2022/09/13 00:33:50;;;;;;;22.80;13.60;;;;;;;8.78;75.46;98693.80;88195;1278;24257;-73
2022/09/13 00:35:51;;;;;;;19.80;13.40;;;;;;;8.78;75.70;98696.08;88211;1278;24782;-74
2022/09/13 00:37:53;;;;;;;19.60;14.40;;;;;;;8.78;75.64;98693.62;88244;1276;26975;-72
2022/09/13 00:39:54;;;;;;;27.80;15.50;;;;;;;8.78;75.88;98689.40;88134;1278;25328;-73
2022/09/13 00:41:56;;;;;;;20.90;14.90;;;;;;;8.79;75.72;98686.91;88229;1277;24364;-73
2022/09/13 00:44:00;;;;;;;30.30;15.80;;;;;;;8.81;75.76;98689.44;88271;1276;22568;-74
2022/09/13 00:46:03;;;;;;;25.30;15.00;;;;;;;8.81;75.79;98685.59;88357;1277;22544;-74
2022/09/13 00:48:07;;;;;;;22.70;14.20;;;;;;;8.81;75.99;98689.40;88373;1274;22842;-74
2022/09/13 00:50:15;;;;;;;25.40;15.60;;;;;;;8.82;76.06;98685.36;88133;1277;22599;-73
2022/09/13 00:52:19;;;;;;;25.00;14.30;;;;;;;8.83;75.77;98685.47;88352;1275;22568;-74
2022/09/13 00:54:26;;;;;;;18.40;15.20;;;;;;;8.83;75.92;98685.11;88837;1276;22567;-74
2022/09/13 00:56:45;;;;;;;28.40;16.30;;;;;;;8.83;76.15;98685.83;88276;1276;25383;-72
2022/09/13 00:58:57;;;;;;;23.60;14.80;;;;;;;8.84;76.24;98681.40;88264;1277;22704;-73
2022/09/13 01:01:02;;;;;;;29.70;15.30;;;;;;;8.85;76.03;98684.70;88443;1277;22704;-73
2022/09/13 01:03:08;;;;;;;25.30;15.00;;;;;;;8.85;75.97;98685.20;88185;1277;23630;-73
2022/09/13 01:05:10;;;;;;;27.60;15.70;;;;;;;8.85;76.07;98678.05;88242;1276;25705;-73
2022/09/13 01:07:15;;;;;;;26.00;16.70;;;;;;;8.84;76.21;98672.64;88155;1277;25337;-74
2022/09/13 01:09:17;;;;;;;23.90;16.90;;;;;;;8.85;76.12;98674.52;88683;1276;22756;-74
2022/09/13 01:11:29;;;;;;;24.50;16.90;;;;;;;8.86;76.40;98669.92;88220;1277;22560;-73
2022/09/13 01:13:32;;;;;;;32.80;18.80;;;;;;;8.89;76.38;98672.61;88068;1278;23408;-74
2022/09/13 01:15:35;;;;;;;27.70;18.00;;;;;;;8.91;76.35;98670.73;88138;1276;23086;-73
2022/09/13 01:17:38;;;;;;;26.50;19.60;;;;;;;8.93;76.49;98671.73;88276;1275;25430;-72
2022/09/13 01:19:40;;;;;;;25.70;18.60;;;;;;;8.95;76.80;98671.28;88251;1274;22596;-75
2022/09/13 01:22:13;;;;;;;29.20;19.90;;;;;;;8.96;76.47;98671.58;88150;1278;22569;-73
2022/09/13 01:24:15;;;;;;;26.50;19.00;;;;;;;8.96;76.83;98671.23;88261;1275;25249;-74
2022/09/13 01:26:32;;;;;;;23.70;18.20;;;;;;;8.97;76.71;98674.52;88328;1274;22973;-74
2022/09/13 01:28:42;;;;;;;27.40;19.20;;;;;;;8.97;76.88;98677.82;88190;1277;22554;-71
2022/09/13 01:31:11;;;;;;;35.60;19.60;;;;;;;8.97;76.94;98677.31;88241;1276;24224;-73
2022/09/13 01:34:04;;;;;;;26.40;19.20;;;;;;;8.97;76.73;98676.44;87802;1282;22571;-73
2022/09/13 01:36:23;;;;;;;30.70;19.80;;;;;;;8.96;76.76;98679.47;87664;1288;23333;-73
2022/09/13 01:38:51;;;;;;;29.20;20.10;;;;;;;8.96;76.92;98679.30;87237;1288;22824;-72
2022/09/13 01:40:56;;;;;;;40.60;20.70;;;;;;;8.96;76.97;98680.68;87254;1288;25482;-73
2022/09/13 01:43:19;;;;;;;31.50;21.60;;;;;;;8.96;76.86;98682.59;87228;1288;23165;-74
2022/09/13 01:45:39;;;;;;;33.90;21.10;;;;;;;8.96;77.09;98683.13;87298;1288;22573;-73
2022/09/13 01:47:56;;;;;;;35.30;22.20;;;;;;;8.96;77.12;98680.14;87230;1288;25340;-73
2022/09/13 01:50:20;;;;;;;37.20;21.40;;;;;;;8.96;77.06;98678.41;87270;1288;27319;-74
2022/09/13 01:52:36;;;;;;;29.50;21.50;;;;;;;8.94;77.01;98674.82;87258;1287;25315;-72
2022/09/13 01:54:52;;;;;;;26.20;21.10;;;;;;;8.95;77.08;98673.91;87179;1287;27839;-73
2022/09/13 01:57:08;;;;;;;33.10;22.10;;;;;;;8.93;77.14;98673.96;87245;1288;22612;-74
2022/09/13 01:59:28;;;;;;;34.30;21.20;;;;;;;8.92;77.12;98668.77;86857;1293;22735;-71
2022/09/13 02:01:53;;;;;;;27.30;21.30;;;;;;;8.91;77.36;98666.57;87188;1287;22674;-73
2022/09/13 02:04:01;;;;;;;34.30;22.40;;;;;;;8.90;77.08;98666.41;87230;1288;25347;-74
2022/09/13 02:06:18;;;;;;;34.20;22.60;;;;;;;8.88;77.14;98664.04;87177;1290;25351;-73
2022/09/13 02:08:27;;;;;;;42.70;23.10;;;;;;;8.90;77.21;98661.16;87213;1288;25621;-74
2022/09/13 02:10:37;;;;;;;54.00;25.20;;;;;;;8.90;77.28;98666.05;87493;1285;23226;-73
2022/09/13 02:12:43;;;;;;;58.80;25.70;;;;;;;8.90;77.03;98662.22;88047;1277;22589;-73
2022/09/13 02:14:52;;;;;;;47.10;23.40;;;;;;;8.89;77.43;98659.31;87443;1276;1623483;-73
2022/09/13 02:17:15;;;;;;;37.40;23.40;;;;;;;8.85;77.15;98656.11;88186;1277;22821;-74
2022/09/13 02:20:07;;;;;;;32.10;22.80;;;;;;;8.84;77.19;98653.56;88272;1273;22625;-74
2022/09/13 02:22:15;;;;;;;34.90;20.90;;;;;;;8.79;77.38;98649.39;88146;1276;22564;-73
2022/09/13 02:24:26;;;;;;;28.00;20.20;;;;;;;8.75;77.71;98645.73;88288;1275;24650;-73
2022/09/13 02:26:30;;;;;;;93.40;25.00;;;;;;;8.74;77.54;98644.89;88294;1274;22560;-74
2022/09/13 02:28:36;;;;;;;32.80;23.20;;;;;;;8.75;77.80;98642.21;88193;1276;22720;-72
2022/09/13 02:30:44;;;;;;;62.10;24.80;;;;;;;8.77;77.67;98642.16;88281;1275;25449;-73
2022/09/13 02:33:00;;;;;;;45.70;23.30;;;;;;;8.79;77.36;98643.44;88308;1274;22794;-73
2022/09/13 02:35:12;;;;;;;76.30;25.20;;;;;;;8.79;77.78;98645.36;88088;1276;24367;-73
2022/09/13 02:37:14;;;;;;;87.10;27.10;;;;;;;8.79;77.28;98648.87;88262;1274;26942;-73
2022/09/13 02:39:21;;;;;;;94.60;25.90;;;;;;;8.80;77.71;98649.53;88446;1274;24404;-73
2022/09/13 02:41:28;;;;;;;82.40;25.00;;;;;;;8.80;77.54;98650.77;88037;1277;22759;-72
2022/09/13 02:43:38;;;;;;;100.30;27.80;;;;;;;8.78;77.44;98651.21;88439;1275;22559;-73
2022/09/13 02:45:50;;;;;;;96.60;26.50;;;;;;;8.79;77.74;98649.05;88095;1276;22567;-73
2022/09/13 02:48:11;;;;;;;135.20;26.00;;;;;;;8.79;77.77;98646.45;88247;1276;22696;-72
2022/09/13 02:50:34;;;;;;;84.10;24.40;;;;;;;8.78;77.41;98649.45;88869;1274;25480;-73
2022/09/13 02:52:57;;;;;;;91.30;25.80;;;;;;;8.76;77.62;98649.71;88269;1276;25114;-71
2022/09/13 02:55:05;;;;;;;70.90;24.00;;;;;;;8.73;77.73;98646.52;88305;1274;25366;-72
2022/09/13 02:57:09;;;;;;;77.50;22.80;;;;;;;8.72;77.60;98645.70;88145;1277;22789;-72
2022/09/13 02:59:22;;;;;;;112.00;24.00;;;;;;;8.69;77.54;98643.52;88300;1274;23452;-72
2022/09/13 03:01:24;;;;;;;89.60;23.40;;;;;;;8.70;77.76;98640.71;88134;1277;24307;-74
2022/09/13 03:03:27;;;;;;;127.80;22.40;;;;;;;8.70;77.79;98634.39;88263;1276;22885;-73
2022/09/13 03:05:28;;;;;;;126.90;23.00;;;;;;;8.69;77.81;98630.77;88177;1276;22583;-71
2022/09/13 03:07:30;;;;;;;180.30;23.30;;;;;;;8.68;77.72;98631.48;88162;1276;22594;-73
2022/09/13 03:09:33;;;;;;;191.60;22.90;;;;;;;8.66;77.73;98621.77;88173;1276;22745;-73
2022/09/13 03:11:50;;;;;;;69.50;21.90;;;;;;;8.69;77.58;98625.31;88143;1276;22913;-74
2022/09/13 03:14:19;;;;;;;87.00;22.50;;;;;;;8.71;77.77;98621.59;88230;1274;25389;-72
2022/09/13 03:16:43;;;;;;;126.30;24.30;;;;;;;8.68;77.87;98622.41;88257;1275;25065;-72
2022/09/13 03:19:15;;;;;;;131.20;22.40;;;;;;;8.66;77.77;98619.66;88185;1274;24284;-74
2022/09/13 03:21:32;;;;;;;117.70;23.30;;;;;;;8.64;77.75;98615.02;87781;1284;22676;-72
2022/09/13 03:23:55;;;;;;;131.00;23.90;;;;;;;8.64;77.88;98615.25;87858;1281;22708;-73
2022/09/13 03:26:15;;;;;;;109.60;22.20;;;;;;;8.63;78.11;98613.34;87708;1281;22727;-74
2022/09/13 03:28:24;;;;;;;111.60;22.60;;;;;;;8.61;78.23;98610.84;87887;1281;22599;-73
2022/09/13 03:30:26;;;;;;;117.00;23.30;;;;;;;8.60;78.20;98606.45;87899;1281;22745;-72
2022/09/13 03:32:58;;;;;;;116.60;22.00;;;;;;;8.61;78.18;98607.15;87682;1285;23492;-74
2022/09/13 03:35:19;;;;;;;71.00;21.60;;;;;;;8.60;78.14;98604.91;87859;1282;23985;-73
2022/09/13 03:37:42;;;;;;;53.60;22.00;;;;;;;8.59;78.27;98596.89;87748;1282;22764;-73
2022/09/13 03:39:49;;;;;;;57.80;22.30;;;;;;;8.59;78.34;98601.95;87852;1283;24776;-74
2022/09/13 03:41:56;;;;;;;32.00;22.60;;;;;;;8.59;78.57;98602.66;87933;1281;25491;-73
2022/09/13 03:44:07;;;;;;;47.10;21.20;;;;;;;8.62;78.56;98604.99;87978;1284;23028;-76
2022/09/13 03:46:11;;;;;;;;;;;;;;;8.64;78.08;98608.03;87701;1285;22819;-73
2022/09/13 03:48:14;;;;;;;86.90;22.80;;;;;;;8.63;78.30;98605.09;87737;1285;24528;-72
2022/09/13 03:50:21;;;;;;;79.50;24.40;;;;;;;8.64;78.48;98608.38;87578;1284;25168;-74
2022/09/13 03:52:23;;;;;;;61.80;21.70;;;;;;;8.65;78.41;98603.98;87967;1281;22989;-72
2022/09/13 03:54:31;;;;;;;95.20;22.90;;;;;;;8.64;78.47;98602.77;87879;1284;26820;-74
2022/09/13 03:56:32;;;;;;;141.00;24.70;;;;;;;8.63;78.63;98602.16;87685;1281;23153;-74
2022/09/13 03:58:34;;;;;;;104.70;22.70;;;;;;;8.63;78.52;98604.77;87770;1276;22568;-72
2022/09/13 04:00:36;;;;;;;116.00;21.70;;;;;;;8.64;78.34;98602.42;88085;1276;22794;-73
2022/09/13 04:02:37;;;;;;;140.20;22.90;;;;;;;8.64;78.60;98606.66;88108;1277;22740;-72
2022/09/13 04:04:41;;;;;;;126.60;21.40;;;;;;;8.62;78.59;98606.02;88188;1276;22595;-73
2022/09/13 04:06:43;;;;;;;164.40;22.00;;;;;;;8.61;78.56;98606.95;88447;1277;22575;-72
2022/09/13 04:08:44;;;;;;;104.20;19.90;;;;;;;8.59;78.50;98608.80;88241;1275;22696;-73
2022/09/13 04:10:50;;;;;;;83.70;20.90;;;;;;;8.56;78.29;98605.77;87997;1279;22566;-73
2022/09/13 04:12:53;;;;;;;93.40;20.20;;;;;;;8.55;78.76;98603.73;88194;1276;23422;-72
2022/09/13 04:14:55;;;;;;;90.50;20.20;;;;;;;8.54;78.82;98601.48;88123;1277;24415;-72
2022/09/13 04:16:57;;;;;;;91.60;20.70;;;;;;;8.55;78.69;98597.45;88105;1276;22582;-73
2022/09/13 04:18:58;;;;;;;68.20;20.10;;;;;;;8.53;78.56;98598.73;88268;1276;26142;-73
2022/09/13 04:21:03;;;;;;;116.20;20.30;;;;;;;8.53;78.74;98597.01;88099;1279;24256;-74
2022/09/13 04:23:05;;;;;;;136.90;23.20;;;;;;;8.52;78.68;98592.85;88517;1276;22562;-71
2022/09/13 04:25:08;;;;;;;84.60;21.70;;;;;;;8.52;78.89;98591.79;88099;1278;22565;-74
2022/09/13 04:27:11;;;;;;;99.40;22.20;;;;;;;8.53;78.70;98591.23;88152;1277;24483;-72
2022/09/13 04:29:13;;;;;;;67.60;20.50;;;;;;;8.52;78.62;98592.16;88435;1276;25642;-74
2022/09/13 04:31:14;;;;;;;67.20;20.30;;;;;;;8.51;79.01;98592.89;88398;1274;22708;-74
2022/09/13 04:33:16;;;;;;;110.50;21.40;;;;;;;8.50;78.67;98589.60;88161;1276;24615;-74
2022/09/13 04:35:18;;;;;;;67.00;20.80;;;;;;;8.49;78.53;98590.54;88201;1276;22577;-74
2022/09/13 04:37:20;;;;;;;80.60;20.20;;;;;;;8.47;79.00;98596.36;88224;1276;25422;-73
2022/09/13 04:39:22;;;;;;;104.50;20.30;;;;;;;8.47;78.73;98591.67;88292;1276;23296;-72
2022/09/13 04:41:24;;;;;;;121.80;21.30;;;;;;;8.47;78.85;98590.45;88167;1278;22634;-72
2022/09/13 04:43:26;;;;;;;145.40;20.10;;;;;;;8.47;78.89;98592.37;88242;1276;25441;-73
2022/09/13 04:45:27;;;;;;;138.30;19.70;;;;;;;8.46;78.76;98593.45;88276;1275;22692;-73
2022/09/13 04:47:29;;;;;;;135.90;20.10;;;;;;;8.43;78.54;98589.01;88188;1276;22590;-72
2022/09/13 04:49:31;;;;;;;89.80;19.70;;;;;;;8.40;78.73;98595.08;88177;1276;22765;-72
2022/09/13 04:51:32;;;;;;;63.20;19.70;;;;;;;8.38;78.62;98598.90;88178;1276;22851;-74
2022/09/13 04:53:34;;;;;;;110.10;19.60;;;;;;;8.33;78.86;98591.53;88306;1274;22574;-74
2022/09/13 04:55:36;;;;;;;81.90;18.40;;;;;;;8.31;79.05;98591.11;88217;1276;22795;-73
2022/09/13 04:57:38;;;;;;;68.80;18.80;;;;;;;8.29;78.86;98588.77;88263;1276;23111;-72
2022/09/13 04:59:39;;;;;;;87.70;19.80;;;;;;;8.27;79.08;98592.19;88235;1276;22694;-72
2022/09/13 05:01:41;;;;;;;67.60;18.40;;;;;;;8.26;79.12;98590.16;88526;1274;23439;-73
2022/09/13 05:03:43;;;;;;;79.10;20.40;;;;;;;8.25;79.10;98589.46;88355;1276;23784;-74
2022/09/13 05:05:45;;;;;;;65.90;20.10;;;;;;;8.26;78.96;98585.91;88460;1274;23200;-73
2022/09/13 05:07:50;;;;;;;34.60;19.20;;;;;;;8.26;79.10;98583.44;88190;1276;25490;-72
2022/09/13 05:09:52;;;;;;;38.10;19.50;;;;;;;8.28;79.22;98585.66;88094;1279;22719;-73
2022/09/13 05:11:53;;;;;;;46.30;18.50;;;;;;;8.28;79.16;98587.94;88118;1276;25745;-71
2022/09/13 05:13:57;;;;;;;69.60;21.30;;;;;;;8.28;79.13;98587.23;87995;1276;22546;-73
2022/09/13 05:16:02;;;;;;;43.90;22.60;;;;;;;8.29;79.33;98584.58;88201;1279;22867;-72
2022/09/13 05:18:04;;;;;;;92.30;23.00;;;;;;;8.29;79.49;98579.64;88232;1276;22675;-72
2022/09/13 05:20:06;;;;;;;90.20;24.00;;;;;;;8.34;79.45;98587.49;88135;1278;25502;-74
2022/09/13 05:22:08;;;;;;;109.30;24.90;;;;;;;8.37;79.55;98589.48;88273;1276;22653;-73
2022/09/13 05:24:10;;;;;;;93.30;22.90;;;;;;;8.38;79.50;98590.80;88136;1276;23516;-72
2022/09/13 05:26:13;;;;;;;87.00;24.30;;;;;;;8.41;79.67;98594.02;88247;1274;22716;-73
2022/09/13 05:28:17;;;;;;;132.80;24.70;;;;;;;8.43;79.39;98591.31;88232;1276;22565;-72
2022/09/13 05:30:18;;;;;;;115.30;25.20;;;;;;;8.45;79.53;98592.77;88374;1274;25391;-73
2022/09/13 05:32:20;;;;;;;168.00;25.10;;;;;;;8.49;79.71;98595.43;88155;1276;24750;-72
2022/09/13 05:34:22;;;;;;;103.50;26.60;;;;;;;8.53;79.52;98589.13;88113;1277;23459;-72
2022/09/13 05:36:25;;;;;;;144.10;26.90;;;;;;;8.57;79.56;98594.03;88262;1276;23386;-72
2022/09/13 05:38:26;;;;;;;119.60;27.90;;;;;;;8.61;79.71;98596.63;88744;1276;22506;-73
2022/09/13 05:40:28;;;;;;;100.00;29.30;;;;;;;8.64;79.62;98596.13;88179;1277;22586;-73
2022/09/13 05:42:29;;;;;;;70.30;31.20;;;;;;;8.66;79.84;98599.52;88194;1276;22589;-73
2022/09/13 05:44:31;;;;;;;72.00;30.60;;;;;;;8.70;79.90;98601.83;88173;1276;22647;-74
2022/09/13 05:46:33;;;;;;;81.00;32.50;;;;;;;8.75;79.96;98601.98;88223;1276;22791;-73
2022/09/13 05:48:35;;;;;;;59.90;32.80;;;;;;;8.80;80.15;98602.60;88087;1276;24272;-71
2022/09/13 05:50:37;;;;;;;49.70;33.00;;;;;;;8.84;79.89;98603.06;88190;1276;25458;-73
2022/09/13 05:52:39;;;;;;;47.40;32.70;;;;;;;8.90;80.13;98606.49;88057;1279;22784;-73
2022/09/13 05:54:43;;;;;;;53.10;32.40;;;;;;;8.95;80.04;98603.26;88187;1278;25827;-73
2022/09/13 05:56:46;;;;;;;54.20;35.70;;;;;;;9.01;79.79;98600.52;88315;1274;25675;-74
2022/09/13 05:58:49;;;;;;;46.60;34.20;;;;;;;9.08;79.98;98604.62;88376;1274;24204;-75
2022/09/13 06:00:54;;;;;;;49.70;34.80;;;;;;;9.12;80.35;98601.79;88254;1276;22580;-74
2022/09/13 06:02:55;;;;;;;51.50;33.60;;;;;;;9.19;80.63;98604.92;88522;1278;22586;-73
2022/09/13 06:04:57;;;;;;;52.60;33.70;;;;;;;9.24;80.43;98600.29;88447;1274;23468;-74
2022/09/13 06:07:01;;;;;;;49.70;34.10;;;;;;;9.31;80.66;98598.90;88293;1275;24130;-72
2022/09/13 06:09:05;;;;;;;46.50;30.90;;;;;;;9.36;80.50;98595.67;88244;1276;22591;-73
2022/09/13 06:11:09;;;;;;;52.60;35.30;;;;;;;9.42;80.64;98591.02;88381;1274;22820;-71
2022/09/13 06:13:10;;;;;;;55.50;35.60;;;;;;;9.48;80.56;98594.55;88183;1278;23057;-73
2022/09/13 06:15:13;;;;;;;54.80;34.50;;;;;;;9.56;80.58;98594.02;88354;1276;22650;-70
2022/09/13 06:17:15;;;;;;;47.50;33.60;;;;;;;9.64;80.68;98595.70;88378;1275;22578;-74
2022/09/13 06:19:17;;;;;;;53.50;36.30;;;;;;;9.73;80.79;98596.33;88385;1274;24226;-74
2022/09/13 06:21:20;;;;;;;50.60;33.70;;;;;;;9.83;80.65;98601.24;88136;1278;22724;-74
2022/09/13 06:23:23;;;;;;;44.50;32.70;;;;;;;9.92;80.66;98599.16;88270;1277;24387;-72
2022/09/13 06:25:25;;;;;;;49.00;33.70;;;;;;;10.01;80.76;98594.52;88201;1276;22739;-73
2022/09/13 06:27:30;;;;;;;51.70;32.10;;;;;;;10.14;80.84;98598.59;88278;1276;23053;-72
2022/09/13 06:29:32;;;;;;;46.70;30.00;;;;;;;10.26;80.88;98600.76;88301;1276;22570;-73
2022/09/13 06:31:34;;;;;;;45.00;29.60;;;;;;;10.37;80.68;98598.44;88555;1274;23374;-74
2022/09/13 06:33:38;;;;;;;40.70;27.90;;;;;;;10.49;80.81;98602.73;88486;1276;25364;-74
2022/09/13 06:35:39;;;;;;;44.80;25.90;;;;;;;10.60;80.67;98604.95;88229;1276;22633;-73
2022/09/13 06:37:42;;;;;;;44.70;25.80;;;;;;;10.72;80.79;98604.67;88353;1276;22631;-73
2022/09/13 06:39:44;;;;;;;33.90;23.60;;;;;;;10.84;80.62;98603.84;88212;1278;22617;-73
2022/09/13 06:41:46;;;;;;;36.80;25.90;;;;;;;10.94;80.63;98605.55;88253;1276;24360;-73
2022/09/13 06:43:57;;;;;;;32.20;20.50;;;;;;;11.04;80.45;98603.95;88138;1276;22650;-74
2022/09/13 06:46:08;;;;;;;28.20;20.50;;;;;;;11.15;80.52;98603.71;88291;1276;25256;-73
2022/09/13 06:48:09;;;;;;;32.10;19.80;;;;;;;11.26;80.46;98596.89;88724;1276;25434;-72
2022/09/13 06:50:12;;;;;;;27.90;18.80;;;;;;;11.38;80.57;98598.02;88177;1276;22566;-73
2022/09/13 06:52:14;;;;;;;22.80;17.10;;;;;;;11.51;80.55;98596.92;88187;1277;22641;-74
2022/09/13 06:54:16;;;;;;;24.10;17.80;;;;;;;11.61;80.32;98594.94;88356;1274;22673;-73
2022/09/13 06:56:27;;;;;;;28.90;16.90;;;;;;;11.70;80.37;98598.23;88260;1275;25526;-74
2022/09/13 06:58:30;;;;;;;24.20;14.70;;;;;;;11.81;80.26;98599.22;88130;1276;22769;-74
2022/09/13 07:00:32;;;;;;;22.90;16.20;;;;;;;11.89;80.04;98605.06;88270;1274;25408;-73
2022/09/13 07:02:34;;;;;;;18.60;15.60;;;;;;;11.95;80.04;98605.24;88263;1276;25525;-74
2022/09/13 07:04:37;;;;;;;17.80;15.90;;;;;;;12.04;80.10;98609.85;88364;1274;22873;-74
2022/09/13 07:06:50;;;;;;;19.80;15.70;;;;;;;12.14;80.06;98608.56;88290;1276;22587;-73
2022/09/13 07:08:57;;;;;;;27.50;16.30;;;;;;;12.25;79.89;98609.83;88596;1276;24316;-72
2022/09/13 07:10:58;;;;;;;28.10;15.90;;;;;;;12.34;80.01;98606.05;88409;1276;22721;-74
2022/09/13 07:13:00;;;;;;;28.90;15.20;;;;;;;12.45;79.91;98609.13;88414;1276;22632;-73
2022/09/13 07:15:02;;;;;;;19.00;13.70;;;;;;;12.55;79.88;98606.21;88308;1276;22564;-74
2022/09/13 07:17:04;;;;;;;22.20;15.00;;;;;;;12.66;79.75;98607.64;88290;1276;22561;-73
2022/09/13 07:19:11;;;;;;;19.70;14.70;;;;;;;12.76;79.70;98607.20;88349;1276;23739;-73
2022/09/13 07:21:13;;;;;;;27.50;14.30;;;;;;;12.87;79.83;98603.68;88411;1276;25496;-73
2022/09/13 07:23:15;;;;;;;16.70;13.60;;;;;;;12.97;79.85;98600.23;88460;1274;22578;-74
2022/09/13 07:25:17;;;;;;;22.90;14.60;;;;;;;13.06;79.66;98598.25;88320;1276;22586;-73
2022/09/13 07:27:19;;;;;;;18.60;14.00;;;;;;;13.14;79.71;98596.48;88176;1276;22589;-73
2022/09/13 07:29:22;;;;;;;18.60;13.90;;;;;;;13.25;79.58;98591.88;88390;1274;24246;-72
2022/09/13 07:31:25;;;;;;;24.70;15.00;;;;;;;13.35;79.48;98586.15;88471;1276;23510;-73
2022/09/13 07:33:27;;;;;;;21.20;14.50;;;;;;;13.46;79.64;98586.85;88355;1274;22585;-73
2022/09/13 07:35:29;;;;;;;21.00;14.80;;;;;;;13.56;79.43;98585.65;88286;1276;25249;-74
2022/09/13 07:37:31;;;;;;;33.20;15.10;;;;;;;13.64;79.47;98583.91;88082;1278;25263;-73
2022/09/13 07:39:32;;;;;;;19.70;14.20;;;;;;;13.72;79.25;98585.63;88170;1276;23499;-71
2022/09/13 07:41:34;;;;;;;22.00;16.10;;;;;;;13.80;79.25;98583.68;88456;1277;24246;-73
2022/09/13 07:43:36;;;;;;;38.70;14.60;;;;;;;13.89;79.46;98586.80;88516;1276;25515;-75
2022/09/13 07:45:38;;;;;;;19.10;14.20;;;;;;;13.97;79.31;98590.33;88704;1274;22586;-74
2022/09/13 07:47:40;;;;;;;19.80;14.90;;;;;;;14.04;79.00;98592.14;88436;1276;22858;-74
2022/09/13 07:49:41;;;;;;;20.50;15.40;;;;;;;14.09;79.02;98593.36;88519;1274;22637;-74
2022/09/13 07:51:44;;;;;;;19.90;13.90;;;;;;;14.13;78.86;98588.31;88615;1275;22734;-74
2022/09/13 07:53:48;;;;;;;27.40;13.70;;;;;;;14.18;79.06;98591.15;88579;1276;24315;-74
2022/09/13 07:55:50;;;;;;;27.70;14.20;;;;;;;14.27;78.92;98586.33;88345;1274;22575;-72
2022/09/13 07:57:52;;;;;;;21.10;13.00;;;;;;;14.37;78.98;98589.17;88306;1276;22772;-73
2022/09/13 07:59:54;;;;;;;18.40;13.40;;;;;;;14.45;79.00;98585.22;88244;1276;22670;-72
2022/09/13 08:01:56;;;;;;;26.90;13.50;;;;;;;14.55;78.80;98580.11;88411;1274;26671;-74
2022/09/13 08:04:00;;;;;;;21.30;13.50;;;;;;;14.63;78.53;98580.27;88270;1276;22636;-73
2022/09/13 08:06:03;;;;;;;17.90;11.90;;;;;;;14.70;78.61;98579.11;88484;1274;22655;-71
2022/09/13 08:08:06;;;;;;;21.50;12.90;;;;;;;14.74;78.40;98575.41;88451;1276;22575;-73
2022/09/13 08:10:08;;;;;;;19.30;12.10;;;;;;;14.81;78.32;98572.11;88377;1276;23765;-73
2022/09/13 08:12:09;;;;;;;19.10;11.90;;;;;;;14.88;78.32;98573.73;88259;1276;23295;-73
2022/09/13 08:14:13;;;;;;;18.50;12.40;;;;;;;14.95;78.29;98569.33;88230;1276;22735;-73
2022/09/13 08:16:18;;;;;;;17.70;11.40;;;;;;;15.02;78.04;98566.91;88195;1276;22889;-73
2022/09/13 08:18:20;;;;;;;22.10;11.10;;;;;;;15.07;78.11;98567.20;88269;1275;23082;-73
2022/09/13 08:20:21;;;;;;;21.10;11.70;;;;;;;15.12;78.05;98565.98;88159;1279;22665;-73
2022/09/13 08:22:23;;;;;;;14.80;11.00;;;;;;;15.19;78.03;98560.88;88242;1276;22588;-72
2022/09/13 08:24:25;;;;;;;17.40;9.70;;;;;;;15.28;78.02;98558.63;88395;1274;28027;-73
2022/09/13 08:26:29;;;;;;;13.30;10.60;;;;;;;15.38;77.99;98552.90;88272;1274;22557;-74
2022/09/13 08:28:31;;;;;;;15.00;10.00;;;;;;;15.49;77.97;98553.30;88185;1276;22671;-74
2022/09/13 08:30:36;;;;;;;18.30;9.50;;;;;;;15.61;77.87;98554.35;88242;1276;23368;-72
2022/09/13 08:32:38;;;;;;;14.00;9.60;;;;;;;15.77;78.04;98550.32;88224;1276;22876;-72
2022/09/13 08:34:40;;;;;;;11.80;8.90;;;;;;;15.93;77.67;98552.73;88282;1276;24371;-73
2022/09/13 08:36:42;;;;;;;10.40;8.30;;;;;;;16.01;77.23;98551.53;88125;1276;22573;-72
2022/09/13 08:38:48;;;;;;;15.10;8.50;;;;;;;16.13;77.41;98547.08;88301;1275;24270;-73
2022/09/13 08:40:55;;;;;;;16.40;8.60;;;;;;;16.29;77.46;98545.65;88231;1276;24295;-72
2022/09/13 08:43:30;;;;;;;20.10;7.70;;;;;;;16.50;77.41;98547.34;88633;1276;22675;-73
2022/09/13 08:45:32;;;;;;;13.10;8.00;;;;;;;16.69;76.95;98539.79;88387;1276;24229;-73
2022/09/13 08:47:46;;;;;;;9.20;7.80;;;;;;;16.74;76.71;98540.98;88364;1274;22589;-72
2022/09/13 08:49:57;;;;;;;11.80;7.80;;;;;;;16.77;76.65;98541.27;88354;1274;23103;-73
2022/09/13 08:52:25;;;;;;;13.20;6.40;;;;;;;16.86;76.69;98540.04;88275;1276;22766;-73
2022/09/13 08:54:27;;;;;;;11.80;5.70;;;;;;;16.98;76.48;98540.00;88163;1276;22568;-72
2022/09/13 08:56:39;;;;;;;6.70;5.90;;;;;;;17.11;76.37;98542.30;88268;1276;22560;-72
2022/09/13 08:59:04;;;;;;;15.60;5.40;;;;;;;17.24;76.14;98536.80;88299;1276;22748;-71
2022/09/13 09:01:26;;;;;;;11.70;6.40;;;;;;;17.36;76.05;98537.78;88457;1274;24204;-72
2022/09/13 09:03:39;;;;;;;8.40;6.60;;;;;;;17.50;75.96;98535.73;88179;1279;25448;-72
2022/09/13 09:05:49;;;;;;;6.20;4.50;;;;;;;17.60;75.72;98540.95;88384;1276;22518;-73
2022/09/13 09:08:26;;;;;;;9.40;4.20;;;;;;;17.63;75.37;98537.30;88417;1276;24162;-74
2022/09/13 09:10:32;;;;;;;5.20;3.60;;;;;;;17.67;74.98;98536.04;87752;1285;22585;-75
2022/09/13 09:12:36;;;;;;;3.40;2.90;;;;;;;17.70;74.67;98537.58;87688;1284;24277;-72
2022/09/13 09:14:43;;;;;;;3.10;2.80;;;;;;;17.71;74.42;98536.61;87769;1285;25319;-72
2022/09/13 09:16:52;;;;;;;11.20;2.70;;;;;;;17.70;73.90;98532.25;87772;1285;23388;-73
2022/09/13 09:18:58;;;;;;;7.20;3.30;;;;;;;17.75;73.95;98529.91;87974;1284;24223;-72
2022/09/13 09:21:05;;;;;;;4.20;2.90;;;;;;;17.86;73.90;98521.27;87763;1284;25322;-73
2022/09/13 09:23:13;;;;;;;4.50;3.00;;;;;;;17.97;73.68;98525.77;87455;1285;22644;-74
2022/09/13 09:25:14;;;;;;;7.00;3.40;;;;;;;18.08;73.61;98518.23;87544;1284;22799;-71
2022/09/13 09:27:19;;;;;;;11.70;3.90;;;;;;;18.17;73.70;98515.45;87559;1285;24275;-71
2022/09/13 09:29:25;;;;;;;8.40;3.50;;;;;;;18.23;73.32;98513.05;87638;1285;23051;-74
2022/09/13 09:32:09;;;;;;;8.60;3.30;;;;;;;18.21;73.00;98514.25;87766;1284;24687;-72
2022/09/13 09:34:44;;;;;;;4.60;3.10;;;;;;;18.18;72.85;98511.43;87202;1290;22732;-74
2022/09/13 09:37:03;;;;;;;6.30;2.90;;;;;;;18.19;72.96;98510.66;87159;1290;23663;-74
2022/09/13 09:39:11;;;;;;;4.90;2.90;;;;;;;18.23;72.70;98504.71;87204;1290;22855;-73
2022/09/13 09:41:30;;;;;;;3.30;3.00;;;;;;;18.27;72.56;98506.86;87294;1293;25257;-72
2022/09/13 09:43:42;;;;;;;10.20;3.40;;;;;;;18.29;72.40;98510.84;87057;1290;25910;-74
2022/09/13 09:45:45;;;;;;;17.60;3.50;;;;;;;18.33;72.47;98509.81;87407;1291;24704;-73
2022/09/13 09:47:49;;;;;;;11.80;3.00;;;;;;;18.41;72.57;98508.25;87289;1288;22590;-75
2022/09/13 09:50:09;;;;;;;5.80;3.20;;;;;;;18.47;72.46;98509.67;87911;1282;22739;-72